createdAt,value
2023-01-17T00:03:42.521Z,46.13
2023-01-17T00:13:44.071Z,49.30
2023-01-17T00:23:45.612Z,49.20
2023-01-17T00:33:47.147Z,49.73
2023-01-17T00:43:48.688Z,47.20
2023-01-17T00:53:50.200Z,51.30
2023-01-17T01:03:51.805Z,55.53
2023-01-17T01:13:53.728Z,52.53
2023-01-17T01:23:55.247Z,48.67
2023-01-17T01:33:56.775Z,50.27
2023-01-17T01:43:58.291Z,51.00
2023-01-17T01:54:07.522Z,45.63
2023-01-17T02:04:09.744Z,49.08
2023-01-17T02:14:19.179Z,49.73
2023-01-17T02:24:53.074Z,51.37
2023-01-17T02:35:02.711Z,53.25
2023-01-17T02:45:05.221Z,50.20
2023-01-17T02:55:27.504Z,53.23
2023-01-17T03:05:52.128Z,56.50
2023-01-17T03:15:53.670Z,55.83
2023-01-17T03:25:55.198Z,51.33
2023-01-17T03:35:56.706Z,48.77
2023-01-17T03:46:07.064Z,48.17
2023-01-17T03:56:09.210Z,48.88
2023-01-17T04:06:10.742Z,46.30
2023-01-17T04:16:16.049Z,48.03
2023-01-17T04:26:17.593Z,45.53
2023-01-17T04:36:19.109Z,41.60
2023-01-17T04:46:20.660Z,54.00
2023-01-17T04:56:22.232Z,53.17
2023-01-17T05:06:23.753Z,49.23
2023-01-17T05:16:25.303Z,49.70
2023-01-17T05:26:26.857Z,49.57
2023-01-17T05:36:28.469Z,49.27
2023-01-17T05:46:30.031Z,55.40
2023-01-17T05:56:31.814Z,57.23
2023-01-17T06:06:33.940Z,59.13
2023-01-17T06:16:35.484Z,55.90
2023-01-17T06:26:36.998Z,56.10
2023-01-17T06:36:38.531Z,56.03
2023-01-17T06:46:40.110Z,58.45
2023-01-17T06:56:41.699Z,53.37
2023-01-17T07:06:43.207Z,60.60
2023-01-17T07:16:44.859Z,53.73
2023-01-17T07:26:50.520Z,64.83
2023-01-17T07:36:52.063Z,58.42
2023-01-17T07:46:54.787Z,58.30
2023-01-17T07:56:56.421Z,61.53
2023-01-17T08:06:57.932Z,61.63
2023-01-17T08:17:25.576Z,61.63
2023-01-17T08:27:28.602Z,59.63
2023-01-17T08:37:30.128Z,67.95
2023-01-17T08:47:32.642Z,67.00
2023-01-17T08:57:34.143Z,61.37
2023-01-17T09:07:35.739Z,63.72
2023-01-17T09:17:37.310Z,63.83
2023-01-17T09:27:38.816Z,57.53
2023-01-17T09:37:40.323Z,59.83
2023-01-17T09:47:49.723Z,61.83
2023-01-17T09:58:05.066Z,62.93
2023-01-17T10:08:08.633Z,63.30
2023-01-17T10:18:30.352Z,61.43
2023-01-17T10:28:48.896Z,64.97
2023-01-17T10:38:56.897Z,66.70
2023-01-17T10:48:58.908Z,74.33
2023-01-17T10:59:27.408Z,72.33
2023-01-17T11:09:39.310Z,64.10
2023-01-17T11:19:41.083Z,59.57
2023-01-17T11:29:42.642Z,63.40
2023-01-17T11:39:44.618Z,52.75
2023-01-17T11:49:48.233Z,54.63
2023-01-17T11:59:50.847Z,46.97
2023-01-17T12:10:35.643Z,48.05
2023-01-17T12:20:55.698Z,38.33
2023-01-17T12:31:22.176Z,38.00
2023-01-17T12:41:34.085Z,40.23
2023-01-17T12:51:43.145Z,37.13
2023-01-17T13:01:49.999Z,37.08
2023-01-17T13:11:57.626Z,39.93
2023-01-17T13:22:02.195Z,35.33
2023-01-17T13:32:03.693Z,42.05
2023-01-17T13:42:29.278Z,33.13
2023-01-17T13:52:33.189Z,27.93
2023-01-17T14:02:38.224Z,25.98
2023-01-17T14:12:39.863Z,19.23
2023-01-17T14:22:56.695Z,22.27
2023-01-17T14:33:00.954Z,22.10
2023-01-17T14:43:07.398Z,22.93
2023-01-17T14:53:11.690Z,21.52
2023-01-17T15:03:13.625Z,17.93
2023-01-17T15:13:21.361Z,18.20
2023-01-17T15:23:30.391Z,18.98
2023-01-17T15:33:33.610Z,18.43
2023-01-17T15:43:35.190Z,18.83
2023-01-17T15:53:39.671Z,16.70
2023-01-17T16:03:52.306Z,16.47
2023-01-17T16:13:53.848Z,17.58
2023-01-17T16:23:55.685Z,14.43
2023-01-17T16:33:57.251Z,13.47
2023-01-17T16:44:01.310Z,11.85
2023-01-17T16:54:03.207Z,12.43
2023-01-17T17:04:04.903Z,12.83
2023-01-17T17:14:06.431Z,14.68
2023-01-17T17:24:08.031Z,16.97
2023-01-17T17:34:13.696Z,17.03
2023-01-17T17:44:15.357Z,18.05
2023-01-17T17:54:17.847Z,17.97
2023-01-17T18:04:19.676Z,21.23
2023-01-17T18:14:21.318Z,23.02
2023-01-17T18:24:24.504Z,17.23
2023-01-17T18:34:27.658Z,18.90
2023-01-17T18:44:29.290Z,17.30
2023-01-17T18:54:30.833Z,19.27
2023-01-17T19:04:32.349Z,16.58
2023-01-17T19:14:33.840Z,21.43
2023-01-17T19:24:35.348Z,20.93
2023-01-17T19:34:36.978Z,21.50
2023-01-17T19:44:38.563Z,25.40
2023-01-17T19:54:41.347Z,28.37
2023-01-17T20:04:42.905Z,23.88
2023-01-17T20:14:45.013Z,25.23
2023-01-17T20:24:46.979Z,25.93
2023-01-17T20:34:48.532Z,26.97
2023-01-17T20:44:50.083Z,23.17
2023-01-17T20:54:52.479Z,27.58
2023-01-17T21:04:53.976Z,30.70
2023-01-17T21:14:55.522Z,36.63
2023-01-17T21:24:57.025Z,33.40
2023-01-17T21:34:58.546Z,30.13
2023-01-17T21:45:00.094Z,31.00
2023-01-17T21:55:01.762Z,32.75
2023-01-17T22:05:03.387Z,32.57
2023-01-17T22:15:05.538Z,33.63
2023-01-17T22:25:07.324Z,37.47
2023-01-17T22:35:08.970Z,38.73
2023-01-17T22:45:11.046Z,32.23
2023-01-17T22:55:12.584Z,32.83
2023-01-17T23:05:14.189Z,30.53
2023-01-17T23:15:15.835Z,32.37
2023-01-17T23:25:17.408Z,30.17
2023-01-17T23:35:21.241Z,29.60
2023-01-17T23:45:22.840Z,31.50
2023-01-17T23:55:24.575Z,36.42
